Time;durP1;ratioP1;P1;durP2;ratioP2;P2;SDS_P1;SDS_P2;PMS_P1;PMS_P2;Temp;Humidity;BMP_temperature;BMP_pressure;BME280_temperature;BME280_humidity;BME280_pressure;Samples;Min_cycle;Max_cycle;Signal;HPM_P1;HPM_P2
2023/01/10 00:01:27;;;;;;;41.50;33.20;;;;;;;5.36;75.35;99554.52;111078;1254;21966;-74
2023/01/10 00:04:00;;;;;;;36.10;31.60;;;;;;;5.36;75.33;99551.42;111337;1254;23703;-74
2023/01/10 00:06:35;;;;;;;39.20;31.00;;;;;;;5.36;75.39;99555.41;111303;1253;23692;-74
2023/01/10 00:09:09;;;;;;;36.60;29.90;;;;;;;5.38;75.18;99565.16;111089;1253;21929;-76
2023/01/10 00:14:34;;;;;;;42.40;32.20;;;;;;;5.35;75.41;99567.52;111155;1253;21957;-75
2023/01/10 00:17:06;;;;;;;40.10;31.30;;;;;;;5.36;75.47;99569.05;110610;1259;21977;-74
2023/01/10 00:19:39;;;;;;;36.50;30.10;;;;;;;5.38;75.38;99578.29;110832;1259;22004;-74
2023/01/10 00:22:09;;;;;;;38.30;31.80;;;;;;;5.38;75.40;99582.59;110462;1263;23028;-75
2023/01/10 00:24:41;;;;;;;40.50;32.60;;;;;;;5.39;75.38;99583.79;110496;1262;23338;-76
2023/01/10 00:27:21;;;;;;;40.50;32.40;;;;;;;5.40;75.39;99587.36;109622;1270;23634;-74
2023/01/10 00:29:52;;;;;;;42.40;33.10;;;;;;;5.41;75.50;99588.88;109664;1271;23082;-73
2023/01/10 00:32:32;;;;;;;40.30;33.20;;;;;;;5.43;75.29;99590.23;109391;1271;21978;-76
2023/01/10 00:35:11;;;;;;;35.50;29.50;;;;;;;5.43;75.30;99592.46;109545;1266;22713;-76
2023/01/10 00:37:46;;;;;;;43.80;31.90;;;;;;;5.45;75.43;99587.04;109987;1266;22531;-76
2023/01/10 00:40:20;;;;;;;41.00;31.30;;;;;;;5.45;75.42;99585.50;109870;1260;22792;-76
2023/01/10 00:45:54;;;;;;;40.80;33.80;;;;;;;5.46;75.43;99590.48;111091;1253;22418;-75
2023/01/10 00:48:24;;;;;;;39.20;31.70;;;;;;;5.47;75.41;99594.74;111108;1254;24129;-75
2023/01/10 00:50:54;;;;;;;36.20;29.40;;;;;;;5.49;75.50;99600.90;111091;1254;21966;-74
2023/01/10 00:53:26;;;;;;;35.50;29.80;;;;;;;5.52;75.18;99607.40;111251;1247;23035;-75
2023/01/10 00:55:57;;;;;;;34.30;28.60;;;;;;;5.54;75.27;99610.48;111284;1254;21967;-75
2023/01/10 00:58:29;;;;;;;32.80;27.00;;;;;;;5.54;75.35;99611.48;111099;1254;22502;-75
2023/01/10 01:00:58;;;;;;;34.10;28.20;;;;;;;5.56;75.47;99613.83;111106;1253;22317;-74
2023/01/10 01:03:35;;;;;;;31.80;26.50;;;;;;;5.57;75.33;99617.07;111229;1253;21954;-74
2023/01/10 01:06:07;;;;;;;35.20;27.80;;;;;;;5.59;75.30;99623.57;110633;1259;23042;-76
2023/01/10 01:08:37;;;;;;;31.60;25.90;;;;;;;5.60;75.26;99625.98;110377;1265;21953;-75
2023/01/10 01:11:09;;;;;;;30.50;27.00;;;;;;;5.61;75.23;99630.77;110108;1265;21983;-74
2023/01/10 01:13:46;;;;;;;35.10;27.40;;;;;;;5.62;75.19;99630.58;110231;1263;23607;-75
2023/01/10 01:16:16;;;;;;;28.80;25.50;;;;;;;5.62;75.18;99632.48;110357;1265;22017;-77
2023/01/10 01:18:51;;;;;;;32.60;27.80;;;;;;;5.60;74.98;99637.53;110083;1263;23705;-75
2023/01/10 01:21:28;;;;;;;30.40;25.40;;;;;;;5.61;74.99;99638.91;110181;1264;24110;-74
2023/01/10 01:24:08;;;;;;;37.30;28.20;;;;;;;5.60;74.99;99641.00;110116;1260;23589;-75
2023/01/10 01:26:41;;;;;;;31.70;27.40;;;;;;;5.60;74.99;99646.34;110760;1253;23743;-76
2023/01/10 01:29:11;;;;;;;34.70;28.70;;;;;;;5.59;74.96;99646.69;111082;1254;21992;-74
2023/01/10 01:31:50;;;;;;;33.60;28.60;;;;;;;5.59;74.88;99646.01;111211;1253;21958;-73
2023/01/10 01:34:25;;;;;;;36.20;27.70;;;;;;;5.61;74.87;99648.23;111173;1253;23744;-75
2023/01/10 01:37:01;;;;;;;35.80;29.10;;;;;;;5.59;74.94;99649.30;111043;1253;23663;-75
2023/01/10 01:39:30;;;;;;;33.00;26.80;;;;;;;5.61;74.81;99647.35;110657;1259;21970;-75
2023/01/10 01:42:01;;;;;;;31.40;28.00;;;;;;;5.60;74.97;99645.66;110616;1260;23718;-74
2023/01/10 01:44:39;;;;;;;35.00;28.00;;;;;;;5.61;75.06;99647.17;110581;1260;22116;-75
2023/01/10 01:47:26;;;;;;;34.50;28.60;;;;;;;5.62;75.08;99652.34;110528;1259;21956;-73
2023/01/10 01:50:03;;;;;;;33.40;27.70;;;;;;;5.61;74.94;99657.36;110452;1260;21991;-75
2023/01/10 01:52:37;;;;;;;36.70;29.30;;;;;;;5.59;74.83;99661.03;110039;1266;22007;-74
2023/01/10 01:55:09;;;;;;;36.40;28.70;;;;;;;5.57;74.72;99659.55;109909;1266;22043;-73
2023/01/10 01:57:46;;;;;;;36.80;29.90;;;;;;;5.53;74.59;99656.55;109987;1266;22002;-74
2023/01/10 02:00:18;;;;;;;33.60;27.80;;;;;;;5.48;74.55;99658.05;110150;1266;23596;-74
2023/01/10 02:02:55;;;;;;;31.30;25.10;;;;;;;5.45;74.56;99658.16;109414;1270;22228;-74
2023/01/10 02:05:37;;;;;;;33.90;28.80;;;;;;;5.42;74.57;99655.81;110284;1262;21938;-75
2023/01/10 02:08:11;;;;;;;33.20;27.30;;;;;;;5.39;74.60;99651.42;110003;1264;21966;-74
2023/01/10 02:11:09;;;;;;;33.00;27.80;;;;;;;5.37;74.64;99647.69;110489;1258;22432;-75
2023/01/10 02:13:45;;;;;;;35.20;29.20;;;;;;;5.34;74.63;99646.38;110771;1258;21987;-75
2023/01/10 02:16:18;;;;;;;32.80;26.80;;;;;;;5.33;74.76;99646.59;110924;1258;23629;-75
2023/01/10 02:18:51;;;;;;;30.00;25.90;;;;;;;5.31;74.71;99648.17;110771;1258;21970;-76
2023/01/10 02:21:31;;;;;;;30.90;25.80;;;;;;;5.30;74.74;99651.49;111056;1253;22729;-74
2023/01/10 02:25:02;;;;;;;37.20;27.60;;;;;;;5.26;74.66;99657.79;111389;1254;22444;-74
2023/01/10 02:28:00;;;;;;;32.70;26.70;;;;;;;5.18;74.60;99659.23;110576;1261;22064;-76
2023/01/10 02:31:03;;;;;;;37.30;27.70;;;;;;;5.11;74.49;99659.08;110023;1268;23147;-75
2023/01/10 02:33:52;;;;;;;29.80;26.60;;;;;;;5.05;74.39;99660.61;109332;1273;21997;-75
2023/01/10 02:37:20;;;;;;;36.50;28.40;;;;;;;5.01;74.53;99666.76;109120;1267;21984;-74
2023/01/10 02:40:23;;;;;;;38.60;29.70;;;;;;;4.95;74.64;99670.16;108964;1277;22994;-74
2023/01/10 02:43:19;;;;;;;;;;;;;;;4.92;74.77;99672.84;108926;1276;21974;-74
2023/01/10 02:46:10;;;;;;;41.60;32.40;;;;;;;4.81;74.85;99673.98;108859;1276;21994;-74
2023/01/10 02:48:40;;;;;;;39.80;31.40;;;;;;;4.79;74.91;99673.18;108994;1271;24381;-74
2023/01/10 02:51:20;;;;;;;34.60;30.20;;;;;;;4.80;75.05;99675.21;109289;1271;22089;-75
2023/01/10 02:54:07;;;;;;;37.20;29.60;;;;;;;4.80;75.05;99676.94;109361;1271;22001;-74
2023/01/10 02:57:13;;;;;;;37.60;29.00;;;;;;;4.79;74.89;99684.04;109290;1271;21985;-75
2023/01/10 03:00:19;;;;;;;38.80;29.60;;;;;;;4.76;74.90;99683.59;108957;1276;23055;-75
2023/01/10 03:03:31;;;;;;;37.80;30.50;;;;;;;4.71;74.83;99683.70;109429;1272;21994;-74
2023/01/10 03:06:25;;;;;;;32.70;28.00;;;;;;;4.66;74.85;99687.27;109427;1273;23071;-75
2023/01/10 03:09:12;;;;;;;37.00;28.80;;;;;;;4.63;74.94;99688.88;108930;1276;23068;-75
2023/01/10 03:11:45;;;;;;;35.30;28.80;;;;;;;4.61;74.96;99691.52;108169;1273;1454295;-75
2023/01/10 03:14:29;;;;;;;32.70;27.80;;;;;;;4.60;74.87;99699.49;109390;1273;22104;-75
2023/01/10 03:17:10;;;;;;;35.40;29.00;;;;;;;4.57;74.93;99705.60;109400;1266;22095;-74
2023/01/10 03:19:55;;;;;;;38.10;28.80;;;;;;;4.56;74.89;99710.09;110363;1265;21974;-75
2023/01/10 03:22:34;;;;;;;34.60;29.70;;;;;;;4.53;74.86;99714.13;109567;1266;21986;-75
2023/01/10 03:25:12;;;;;;;34.30;28.20;;;;;;;4.52;74.97;99716.73;109992;1266;21970;-75
2023/01/10 03:28:03;;;;;;;34.90;29.30;;;;;;;4.52;75.13;99722.07;110105;1265;22003;-76
2023/01/10 03:30:53;;;;;;;35.30;28.80;;;;;;;4.51;75.20;99730.02;109962;1266;22005;-75
2023/01/10 03:33:33;;;;;;;33.20;28.30;;;;;;;4.50;75.26;99736.76;110227;1260;22987;-75
2023/01/10 03:36:40;;;;;;;40.90;30.40;;;;;;;4.51;75.27;99743.63;110853;1255;23610;-76
2023/01/10 03:39:29;;;;;;;38.40;28.70;;;;;;;4.50;75.37;99752.09;111116;1254;22421;-76
2023/01/10 03:42:19;;;;;;;36.80;29.70;;;;;;;4.50;75.43;99756.40;110803;1257;21993;-75
2023/01/10 03:45:07;;;;;;;34.20;29.20;;;;;;;4.52;75.46;99765.66;110728;1260;22025;-75
2023/01/10 03:47:53;;;;;;;35.70;28.90;;;;;;;4.52;75.43;99774.62;110625;1260;21978;-74
2023/01/10 03:50:31;;;;;;;32.60;27.80;;;;;;;4.53;75.44;99774.77;110663;1260;23063;-76
2023/01/10 03:53:01;;;;;;;33.70;27.10;;;;;;;4.52;75.33;99778.41;110870;1260;23593;-76
2023/01/10 03:55:36;;;;;;;32.30;27.30;;;;;;;4.52;75.34;99778.77;110775;1260;22066;-75
2023/01/10 03:58:09;;;;;;;35.60;29.20;;;;;;;4.53;75.42;99784.59;110620;1259;23145;-75
2023/01/10 04:00:46;;;;;;;35.70;28.30;;;;;;;4.55;75.42;99790.58;111048;1254;23010;-75
2023/01/10 04:03:15;;;;;;;32.10;27.60;;;;;;;4.55;75.50;99793.52;111020;1254;21954;-76
2023/01/10 04:05:45;;;;;;;30.10;26.80;;;;;;;4.56;75.49;99798.15;110605;1260;21971;-76
2023/01/10 04:08:25;;;;;;;32.30;26.70;;;;;;;4.56;75.48;99800.20;110612;1260;22010;-76
2023/01/10 04:11:03;;;;;;;30.70;27.10;;;;;;;4.57;75.51;99804.32;110615;1256;21987;-75
2023/01/10 04:13:40;;;;;;;32.20;28.40;;;;;;;4.58;75.49;99806.39;109802;1267;22001;-74
2023/01/10 04:16:34;;;;;;;;;;;;;;;;;;;;;
2023/01/10 04:19:13;;;;;;;32.80;28.50;;;;;;;4.54;75.42;99810.25;109907;1267;23611;-75
2023/01/10 04:21:46;;;;;;;37.20;28.70;;;;;;;4.55;75.29;99808.34;109975;1267;21991;-75
2023/01/10 04:24:19;;;;;;;;;;;;;;;4.54;75.41;99814.91;110151;1260;22820;-76
2023/01/10 04:26:48;;;;;;;34.40;29.30;;;;;;;4.46;75.58;99820.23;110508;1260;23713;-76
2023/01/10 04:29:25;;;;;;;34.10;28.30;;;;;;;4.46;75.55;99826.80;110474;1259;24147;-75
2023/01/10 04:32:01;;;;;;;35.30;28.40;;;;;;;4.47;75.55;99836.76;110026;1267;21949;-74
2023/01/10 04:34:31;;;;;;;32.00;28.60;;;;;;;4.47;75.51;99842.61;109947;1266;22166;-76
2023/01/10 04:37:05;;;;;;;36.90;29.30;;;;;;;4.49;75.39;99845.67;110011;1267;21997;-76
2023/01/10 04:39:37;;;;;;;36.90;28.10;;;;;;;4.50;75.59;99849.10;110558;1260;24286;-74
2023/01/10 04:42:14;;;;;;;36.40;29.80;;;;;;;4.52;75.58;99851.65;110656;1257;21990;-75
2023/01/10 04:44:46;;;;;;;36.30;29.60;;;;;;;4.53;75.51;99854.89;110607;1260;22617;-74
2023/01/10 04:47:19;;;;;;;36.70;30.70;;;;;;;4.53;75.44;99858.86;110772;1260;21976;-74
2023/01/10 04:50:26;;;;;;;35.80;31.20;;;;;;;4.53;75.56;99865.42;110630;1260;23712;-74
2023/01/10 04:53:15;;;;;;;38.10;30.50;;;;;;;4.51;75.61;99870.46;110418;1259;24286;-75
2023/01/10 04:56:07;;;;;;;36.80;31.30;;;;;;;4.51;75.64;99880.96;110794;1252;21969;-76
2023/01/10 04:58:46;;;;;;;37.00;30.00;;;;;;;4.52;75.69;99888.88;111286;1252;21948;-77
2023/01/10 05:01:27;;;;;;;42.40;30.90;;;;;;;4.53;75.56;99893.16;111167;1252;22721;-75
2023/01/10 05:04:02;;;;;;;37.90;30.80;;;;;;;4.53;75.59;99897.13;110615;1259;23088;-75
2023/01/10 05:06:36;;;;;;;39.40;29.50;;;;;;;4.53;75.60;99902.45;110440;1260;23052;-75
2023/01/10 05:09:11;;;;;;;37.30;30.40;;;;;;;4.52;75.58;99901.10;110211;1264;21943;-76
2023/01/10 05:11:46;;;;;;;34.80;29.80;;;;;;;4.52;75.54;99904.54;109602;1270;21988;-75
2023/01/10 05:14:20;;;;;;;38.80;29.50;;;;;;;4.54;75.54;99908.81;109622;1270;21989;-76
2023/01/10 05:16:55;;;;;;;32.30;26.90;;;;;;;4.55;75.60;99915.86;109343;1271;22093;-76
2023/01/10 05:19:27;;;;;;;32.80;26.90;;;;;;;4.56;75.58;99920.31;109528;1270;23701;-75
2023/01/10 05:21:59;;;;;;;31.70;25.60;;;;;;;4.57;75.64;99918.91;109197;1270;22032;-75
2023/01/10 05:24:28;;;;;;;33.60;27.10;;;;;;;4.59;75.70;99922.33;109776;1265;22239;-75
2023/01/10 05:27:04;;;;;;;35.70;27.50;;;;;;;4.61;75.68;99925.56;109716;1268;21997;-75
2023/01/10 05:29:36;;;;;;;31.80;26.70;;;;;;;4.62;75.69;99920.20;109243;1268;22136;-76
2023/01/10 05:32:08;;;;;;;35.40;26.90;;;;;;;4.63;75.59;99926.55;109806;1268;22133;-76
2023/01/10 05:34:40;;;;;;;31.00;25.50;;;;;;;4.63;75.56;99931.22;109911;1264;23716;-76
2023/01/10 05:37:11;;;;;;;30.90;26.50;;;;;;;4.63;75.57;99935.53;110296;1264;22759;-76
2023/01/10 05:39:50;;;;;;;32.90;26.00;;;;;;;4.63;75.53;99939.31;110002;1259;22004;-76
2023/01/10 05:42:26;;;;;;;31.30;25.60;;;;;;;4.62;75.51;99945.71;110312;1259;21988;-74
2023/01/10 05:45:06;;;;;;;36.20;26.40;;;;;;;4.61;75.49;99949.70;110672;1259;23092;-75
2023/01/10 05:47:41;;;;;;;32.80;26.20;;;;;;;4.60;75.47;99953.52;110797;1253;21951;-74
2023/01/10 05:50:11;;;;;;;34.50;26.60;;;;;;;4.60;75.42;99956.79;111185;1253;22012;-74
2023/01/10 05:52:44;;;;;;;34.00;26.50;;;;;;;4.57;75.36;99959.95;110767;1259;24416;-75
2023/01/10 05:55:20;;;;;;;33.00;26.80;;;;;;;4.55;75.29;99967.74;110798;1258;23718;-74
2023/01/10 05:57:57;;;;;;;34.60;26.10;;;;;;;4.52;75.24;99970.02;110599;1259;21962;-74
2023/01/10 06:00:30;;;;;;;32.40;27.80;;;;;;;4.51;75.33;99973.50;110662;1258;21971;-74
2023/01/10 06:03:06;;;;;;;41.00;32.60;;;;;;;4.51;75.47;99978.49;110398;1264;23586;-75
2023/01/10 06:05:48;;;;;;;42.20;34.80;;;;;;;4.52;75.49;99981.75;110392;1263;23682;-77
2023/01/10 06:08:23;;;;;;;39.30;34.40;;;;;;;4.51;75.51;99984.02;110193;1264;21986;-75
2023/01/10 06:10:53;;;;;;;48.00;36.30;;;;;;;4.50;75.42;99987.84;110438;1251;21985;-77
2023/01/10 06:13:26;;;;;;;48.50;41.50;;;;;;;4.47;75.42;99991.48;109526;1268;24438;-76
2023/01/10 06:15:55;;;;;;;40.90;34.50;;;;;;;4.46;75.36;100000.12;109682;1268;22029;-75
2023/01/10 06:18:30;;;;;;;48.00;39.10;;;;;;;4.45;75.44;100012.54;109856;1266;21992;-75
2023/01/10 06:21:12;;;;;;;47.30;37.20;;;;;;;4.45;75.47;100021.17;110098;1261;21970;-75
2023/01/10 06:23:44;;;;;;;43.30;35.20;;;;;;;4.44;75.57;100028.61;110559;1261;22151;-74
2023/01/10 06:26:17;;;;;;;44.20;36.50;;;;;;;4.44;75.46;100029.47;109724;1268;24118;-75
2023/01/10 06:28:49;;;;;;;43.50;36.60;;;;;;;4.43;75.60;100037.57;109503;1271;21999;-75
2023/01/10 06:31:19;;;;;;;48.00;36.20;;;;;;;4.44;75.69;100041.00;109225;1271;23705;-80
2023/01/10 06:33:51;;;;;;;;;;;;;;;4.44;75.62;100043.94;109509;1270;22058;-79
2023/01/10 06:36:21;;;;;;;168.20;84.20;;;;;;;4.34;75.64;100050.13;109288;1275;22013;-75
2023/01/10 06:38:54;;;;;;;110.80;66.80;;;;;;;4.34;75.76;100048.92;108828;1277;22065;-73
2023/01/10 06:41:26;;;;;;;89.20;59.30;;;;;;;4.36;75.82;100055.44;108738;1280;24487;-74
2023/01/10 06:43:55;;;;;;;75.30;51.70;;;;;;;4.39;75.77;100059.70;108902;1274;21998;-75
2023/01/10 06:46:25;;;;;;;63.20;48.80;;;;;;;4.41;75.79;100063.81;109146;1272;22038;-75
2023/01/10 06:48:54;;;;;;;47.60;37.00;;;;;;;4.43;75.84;100069.80;109659;1264;21975;-76
2023/01/10 06:51:23;;;;;;;43.40;34.00;;;;;;;4.48;75.88;100075.91;110327;1264;21979;-75
2023/01/10 06:53:56;;;;;;;40.40;34.40;;;;;;;4.49;75.82;100078.64;109794;1270;22006;-75
2023/01/10 06:56:28;;;;;;;37.20;30.90;;;;;;;4.51;75.86;100084.11;109719;1265;23858;-74
2023/01/10 06:59:00;;;;;;;32.70;28.70;;;;;;;4.52;75.84;100089.96;110357;1263;21949;-75
2023/01/10 07:01:30;;;;;;;34.10;29.60;;;;;;;4.53;75.95;100094.60;110165;1264;21986;-76
2023/01/10 07:04:00;;;;;;;33.90;28.80;;;;;;;4.56;75.88;100104.38;110347;1264;22007;-74
2023/01/10 07:06:30;;;;;;;37.80;29.70;;;;;;;4.59;75.86;100110.88;110323;1264;22067;-76
2023/01/10 07:08:59;;;;;;;38.20;29.00;;;;;;;4.61;75.91;100121.02;110296;1264;24300;-73
2023/01/10 07:11:30;;;;;;;38.60;28.20;;;;;;;4.63;75.92;100124.59;110315;1260;21997;-75
2023/01/10 07:14:01;;;;;;;39.50;28.90;;;;;;;4.67;76.03;100128.33;110569;1259;21968;-76
2023/01/10 07:16:31;;;;;;;34.10;26.30;;;;;;;4.71;76.14;100132.58;110621;1259;23797;-75
2023/01/10 07:19:01;;;;;;;35.20;30.70;;;;;;;4.74;76.05;100134.25;110351;1258;23055;-75
2023/01/10 07:21:33;;;;;;;40.80;30.10;;;;;;;4.77;76.09;100138.68;110768;1258;21968;-75
2023/01/10 07:24:03;;;;;;;39.70;30.30;;;;;;;4.79;76.19;100144.32;110673;1258;22891;-75
2023/01/10 07:26:33;;;;;;;35.00;31.00;;;;;;;4.82;76.20;100146.66;110798;1258;23252;-75
2023/01/10 07:29:02;;;;;;;35.50;30.70;;;;;;;4.87;76.17;100150.05;110975;1258;23033;-75
2023/01/10 07:31:32;;;;;;;31.00;27.50;;;;;;;4.93;76.26;100155.64;111043;1258;22008;-82
2023/01/10 07:34:03;;;;;;;32.60;27.60;;;;;;;4.97;76.25;100159.69;110734;1258;22022;-77
2023/01/10 07:36:37;;;;;;;27.50;24.50;;;;;;;5.01;76.11;100161.00;110254;1255;23042;-78
2023/01/10 07:39:10;;;;;;;30.60;25.30;;;;;;;5.03;75.96;100165.80;110872;1260;23625;-78
2023/01/10 07:41:40;;;;;;;33.90;28.90;;;;;;;5.05;75.78;100171.96;110495;1256;23106;-78
2023/01/10 07:44:15;;;;;;;36.50;31.20;;;;;;;5.09;75.83;100175.00;110624;1260;22017;-77
2023/01/10 07:46:50;;;;;;;37.50;31.00;;;;;;;5.11;75.96;100176.69;110533;1260;21972;-78
2023/01/10 07:49:19;;;;;;;35.70;31.70;;;;;;;5.12;75.77;100178.57;110332;1264;23669;-77
2023/01/10 07:51:53;;;;;;;36.40;32.40;;;;;;;5.12;75.77;100180.13;110566;1264;21973;-81
2023/01/10 07:54:34;;;;;;;39.10;33.40;;;;;;;5.14;75.73;100185.63;110293;1259;22391;-79
2023/01/10 07:57:08;;;;;;;38.60;31.40;;;;;;;5.15;75.74;100190.77;110935;1258;24286;-78
2023/01/10 07:59:40;;;;;;;28.70;25.60;;;;;;;5.14;75.64;100197.35;110763;1258;23589;-79
2023/01/10 08:02:11;;;;;;;24.50;21.90;;;;;;;5.14;75.64;100200.09;110445;1262;21967;-78
2023/01/10 08:04:41;;;;;;;26.70;21.70;;;;;;;5.15;75.64;100202.50;109745;1265;21983;-82
2023/01/10 08:07:13;;;;;;;28.20;20.20;;;;;;;5.17;75.66;100205.21;109701;1266;21949;-83
2023/01/10 08:09:44;;;;;;;23.30;19.40;;;;;;;5.22;75.86;100209.63;109692;1270;21992;-81
2023/01/10 08:12:13;;;;;;;21.90;17.60;;;;;;;5.25;75.76;100211.64;109459;1272;23404;-79
2023/01/10 08:14:55;;;;;;;21.60;18.20;;;;;;;5.26;75.77;100216.27;109502;1260;23036;-80
2023/01/10 08:17:27;;;;;;;26.90;18.60;;;;;;;5.32;75.85;100220.15;109354;1271;22122;-80
2023/01/10 08:20:04;;;;;;;;;;;;;;;5.38;75.73;100223.13;109563;1270;21964;-80
2023/01/10 08:22:42;;;;;;;27.10;20.90;;;;;;;5.31;75.82;100228.25;109753;1271;21998;-82
2023/01/10 08:25:19;;;;;;;29.70;24.80;;;;;;;5.33;75.81;100233.59;109650;1271;21993;-79
2023/01/10 08:28:03;;;;;;;26.30;21.90;;;;;;;5.39;75.94;100235.02;110465;1260;23766;-81
2023/01/10 08:30:39;;;;;;;23.10;17.80;;;;;;;5.45;75.79;100237.33;111210;1253;22424;-81
2023/01/10 08:33:22;;;;;;;21.70;19.30;;;;;;;5.49;75.51;100239.33;110975;1254;21984;-80
2023/01/10 08:36:03;;;;;;;21.00;18.40;;;;;;;5.48;75.51;100239.16;111161;1258;22217;-81
2023/01/10 08:38:43;;;;;;;20.40;16.70;;;;;;;5.50;75.38;100246.55;111076;1258;22612;-83
2023/01/10 08:41:33;;;;;;;19.70;17.10;;;;;;;5.53;75.30;100252.71;111088;1257;21981;-79
2023/01/10 08:44:05;;;;;;;19.70;17.10;;;;;;;5.55;75.26;100254.05;111018;1258;23631;-80
2023/01/10 08:46:46;;;;;;;19.30;16.90;;;;;;;5.57;75.23;100256.60;111109;1258;23586;-81
2023/01/10 08:49:25;;;;;;;18.20;14.60;;;;;;;5.59;75.19;100263.98;111037;1258;21977;-81
2023/01/10 08:52:06;;;;;;;17.60;14.50;;;;;;;5.61;75.22;100264.46;111019;1258;22010;-83
2023/01/10 08:54:45;;;;;;;16.10;14.40;;;;;;;5.65;75.26;100265.60;111002;1258;21986;-81
2023/01/10 08:57:26;;;;;;;16.40;14.70;;;;;;;5.70;75.32;100265.16;110693;1263;22001;-81
2023/01/10 09:00:13;;;;;;;19.60;17.50;;;;;;;5.73;75.17;100269.09;110634;1263;22950;-80
2023/01/10 09:02:48;;;;;;;17.50;15.70;;;;;;;5.76;75.13;100273.17;110612;1263;21992;-81
2023/01/10 09:05:29;;;;;;;19.50;16.20;;;;;;;5.77;75.10;100276.95;109884;1268;22394;-81
2023/01/10 09:08:07;;;;;;;20.30;16.20;;;;;;;5.80;75.03;100278.96;110213;1266;21983;-80
2023/01/10 09:10:47;;;;;;;27.40;25.00;;;;;;;5.78;74.81;100279.00;109961;1266;22981;-81
2023/01/10 09:13:25;;;;;;;20.80;18.30;;;;;;;5.74;74.70;100281.68;109627;1270;21979;-81
2023/01/10 09:16:01;;;;;;;18.20;15.40;;;;;;;5.73;74.79;100288.42;109857;1267;23727;-80
2023/01/10 09:18:33;;;;;;;18.60;14.90;;;;;;;5.71;74.80;100291.05;110430;1266;22143;-80
2023/01/10 09:21:09;;;;;;;17.10;15.30;;;;;;;5.71;74.92;100292.09;109993;1267;21976;-80
2023/01/10 09:23:44;;;;;;;19.50;17.40;;;;;;;5.73;75.11;100299.30;110501;1264;21964;-79
2023/01/10 09:26:20;;;;;;;23.30;20.50;;;;;;;5.77;75.20;100295.61;110358;1264;21987;-80
2023/01/10 09:28:52;;;;;;;20.80;18.70;;;;;;;5.79;75.04;100296.27;109932;1264;21975;-81
2023/01/10 09:31:25;;;;;;;20.60;16.90;;;;;;;5.80;74.95;100294.85;110511;1259;23798;-81
2023/01/10 09:34:42;;;;;;;18.60;16.50;;;;;;;5.82;74.91;100298.09;111273;1254;22001;-82
2023/01/10 09:37:36;;;;;;;25.90;17.50;;;;;;;5.84;75.07;100301.35;110904;1260;21972;-82
2023/01/10 09:40:17;;;;;;;17.00;15.00;;;;;;;5.89;75.06;100300.05;110808;1261;23640;-80
2023/01/10 09:43:19;;;;;;;18.30;15.20;;;;;;;5.93;74.98;100299.45;110030;1266;22378;-81
2023/01/10 09:46:25;;;;;;;17.50;14.60;;;;;;;5.94;74.96;100304.09;109811;1265;23054;-80
2023/01/10 09:49:42;;;;;;;20.90;16.00;;;;;;;5.94;74.84;100301.51;109590;1273;21987;-83
2023/01/10 09:52:31;;;;;;;20.00;16.90;;;;;;;5.92;74.90;100301.36;109524;1267;22000;-79
2023/01/10 09:55:26;;;;;;;19.80;17.10;;;;;;;5.93;74.78;100303.94;109251;1273;22009;-79
2023/01/10 09:58:30;;;;;;;22.20;18.50;;;;;;;5.91;74.77;100305.53;109334;1273;22934;-80
2023/01/10 10:01:35;;;;;;;22.70;18.70;;;;;;;5.92;74.98;100308.45;109542;1267;21974;-80
2023/01/10 10:04:18;;;;;;;20.20;17.20;;;;;;;5.96;75.09;100315.30;109908;1267;22746;-79
2023/01/10 10:07:10;;;;;;;20.50;18.40;;;;;;;5.99;75.00;100318.88;110416;1260;22757;-81
2023/01/10 10:09:54;;;;;;;22.00;19.10;;;;;;;6.00;74.95;100320.40;110944;1260;21975;-81
2023/01/10 10:16:35;;;;;;;22.80;20.40;;;;;;;5.95;75.06;100328.09;111179;1255;24335;-79
2023/01/10 10:19:52;;;;;;;24.40;21.90;;;;;;;5.98;75.27;100335.31;111389;1255;22023;-78
2023/01/10 10:23:18;;;;;;;24.80;22.00;;;;;;;6.04;75.43;100334.84;111082;1254;22499;-80
2023/01/10 10:26:49;;;;;;;24.80;22.20;;;;;;;6.10;75.48;100337.84;111144;1260;21951;-79
2023/01/10 10:30:21;;;;;;;24.60;21.40;;;;;;;6.14;75.37;100346.40;110989;1254;21972;-80
2023/01/10 10:33:47;;;;;;;29.50;22.80;;;;;;;6.16;75.39;100348.77;110924;1260;23517;-78
2023/01/10 10:37:00;;;;;;;24.20;21.70;;;;;;;6.21;75.34;100353.52;110993;1260;21986;-79
2023/01/10 10:39:57;;;;;;;26.30;22.80;;;;;;;6.23;75.10;100355.90;110531;1260;21968;-79
2023/01/10 10:42:47;;;;;;;25.30;21.90;;;;;;;6.24;75.06;100358.13;111011;1260;21968;-78
2023/01/10 10:45:45;;;;;;;28.40;23.30;;;;;;;6.27;75.16;100361.70;110683;1260;23596;-78
2023/01/10 10:48:38;;;;;;;24.10;21.60;;;;;;;6.32;75.17;100366.27;110683;1260;23062;-79
2023/01/10 10:51:24;;;;;;;24.00;21.30;;;;;;;6.35;75.09;100373.45;110614;1260;21977;-81
2023/01/10 10:53:56;;;;;;;26.90;21.40;;;;;;;6.36;75.02;100377.75;111075;1260;21982;-80
2023/01/10 10:56:26;;;;;;;24.50;21.10;;;;;;;6.42;75.08;100379.20;110397;1265;22867;-80
2023/01/10 10:59:03;;;;;;;26.90;24.10;;;;;;;6.45;75.04;100379.64;110742;1258;23673;-80
2023/01/10 11:01:36;;;;;;;26.10;23.30;;;;;;;6.49;75.02;100375.94;111192;1257;23027;-79
2023/01/10 11:04:14;;;;;;;25.90;23.50;;;;;;;6.57;75.11;100376.81;110904;1258;22134;-80
2023/01/10 11:06:48;;;;;;;25.40;21.70;;;;;;;6.61;74.96;100380.70;110863;1258;22517;-80
2023/01/10 11:12:17;;;;;;;26.80;23.50;;;;;;;6.67;74.79;100384.91;111103;1258;22126;-79
2023/01/10 11:14:58;;;;;;;25.10;22.50;;;;;;;6.69;74.49;100378.29;111048;1254;22716;-78
2023/01/10 11:17:33;;;;;;;27.70;24.00;;;;;;;6.68;74.38;100380.90;111332;1254;23580;-80
2023/01/10 11:20:14;;;;;;;26.10;23.10;;;;;;;6.67;74.51;100381.98;111073;1260;21972;-81
2023/01/10 11:22:54;;;;;;;26.20;23.50;;;;;;;6.67;74.54;100377.48;110569;1259;21965;-81
2023/01/10 11:25:24;;;;;;;26.90;23.80;;;;;;;6.66;74.43;100376.29;110681;1259;23821;-78
2023/01/10 11:28:02;;;;;;;29.70;26.30;;;;;;;6.66;74.38;100373.52;110717;1257;23783;-79
2023/01/10 11:30:51;;;;;;;23.90;21.40;;;;;;;6.68;74.43;100374.34;110664;1260;23751;-79
2023/01/10 11:33:34;;;;;;;24.70;22.20;;;;;;;6.64;74.24;100373.74;110675;1260;22113;-79
2023/01/10 11:36:14;;;;;;;22.20;20.00;;;;;;;6.59;74.25;100381.11;109779;1267;23444;-77
2023/01/10 11:39:15;;;;;;;25.40;22.50;;;;;;;6.57;74.36;100388.05;110416;1262;21975;-78
2023/01/10 11:41:52;;;;;;;27.10;24.40;;;;;;;6.57;74.42;100395.83;110365;1262;21996;-78
2023/01/10 11:44:29;;;;;;;25.90;23.10;;;;;;;6.60;74.32;100400.97;110604;1262;21971;-78
2023/01/10 11:47:13;;;;;;;34.50;28.70;;;;;;;6.61;74.30;100403.37;110444;1262;22016;-78
2023/01/10 11:49:54;;;;;;;29.00;25.30;;;;;;;6.61;74.37;100411.30;110400;1262;22119;-78
2023/01/10 11:52:34;;;;;;;30.10;27.10;;;;;;;6.62;74.29;100413.36;110337;1250;23019;-78
2023/01/10 11:55:18;;;;;;;29.70;26.60;;;;;;;6.62;74.39;100414.05;110381;1261;22015;-78
2023/01/10 11:58:22;;;;;;;30.80;27.70;;;;;;;6.65;74.39;100415.20;110610;1257;21992;-79
2023/01/10 12:01:05;;;;;;;30.00;27.20;;;;;;;6.69;74.34;100417.72;110861;1259;21993;-79
2023/01/10 12:03:40;;;;;;;29.00;26.00;;;;;;;6.72;74.25;100420.95;110835;1259;22232;-80
2023/01/10 12:06:17;;;;;;;26.50;23.90;;;;;;;6.74;74.22;100419.35;110763;1259;22431;-78
2023/01/10 12:08:50;;;;;;;28.00;25.10;;;;;;;6.75;74.21;100422.98;110708;1259;21982;-79
2023/01/10 12:11:34;;;;;;;25.60;23.10;;;;;;;6.75;74.03;100426.08;110448;1259;21968;-81
2023/01/10 12:14:31;;;;;;;26.00;23.50;;;;;;;6.74;74.11;100432.67;111095;1254;22238;-79
2023/01/10 12:17:19;;;;;;;24.40;19.40;;;;;;;6.74;74.08;100436.13;111203;1254;22971;-78
2023/01/10 12:20:05;;;;;;;23.20;20.90;;;;;;;6.74;74.11;100438.04;111313;1251;21998;-78
2023/01/10 12:26:01;;;;;;;21.10;19.00;;;;;;;6.70;74.38;100441.22;110962;1258;22900;-78
2023/01/10 12:29:07;;;;;;;19.20;17.40;;;;;;;6.71;74.30;100441.39;110520;1258;21970;-79